Time;durP1;ratioP1;P1;durP2;ratioP2;P2;SDS_P1;SDS_P2;PMS_P1;PMS_P2;Temp;Humidity;BMP_temperature;BMP_pressure;BME280_temperature;BME280_humidity;BME280_pressure;Samples;Min_cycle;Max_cycle;Signal;HPM_P1;HPM_P2
2022/05/29 00:01:20;;;;;;;6.28;2.13;;;;;;;24.87;50.85;100494.09;5116178;28;20043;-79
2022/05/29 00:03:49;;;;;;;8.07;2.65;;;;;;;24.88;51.05;100487.69;5116232;28;20040;-79
2022/05/29 00:06:17;;;;;;;4.20;1.85;;;;;;;24.88;51.09;100488.53;5115897;28;20047;-79
2022/05/29 00:08:45;;;;;;;8.60;2.60;;;;;;;24.89;50.99;100492.91;5115847;28;20375;-78
2022/05/29 00:11:14;;;;;;;4.78;1.88;;;;;;;24.91;50.85;100480.06;5115525;28;20047;-78
2022/05/29 00:13:46;;;;;;;6.00;2.13;;;;;;;24.92;51.02;100475.47;5115231;28;20043;-78
2022/05/29 00:16:14;;;;;;;4.43;2.13;;;;;;;24.93;51.09;100482.56;5115221;28;20052;-78
2022/05/29 00:18:43;;;;;;;4.72;2.15;;;;;;;24.93;50.93;100471.75;5115621;28;20047;-78
2022/05/29 00:21:11;;;;;;;5.10;2.75;;;;;;;24.96;50.92;100462.44;5114977;28;20055;-78
2022/05/29 00:23:42;;;;;;;4.72;2.00;;;;;;;24.95;51.10;100458.03;5113501;28;20048;-78
2022/05/29 00:26:10;;;;;;;4.35;1.83;;;;;;;24.96;51.13;100446.19;5114906;28;20055;-78
2022/05/29 00:28:37;;;;;;;6.32;2.42;;;;;;;24.96;51.05;100444.31;5114839;28;20040;-78
2022/05/29 00:31:04;;;;;;;5.13;2.17;;;;;;;24.96;50.84;100438.91;5114903;28;20048;-79
2022/05/29 00:33:32;;;;;;;2.85;1.85;;;;;;;24.97;51.01;100437.88;5112639;28;20137;-78
2022/05/29 00:36:00;;;;;;;5.18;2.05;;;;;;;24.98;50.83;100430.59;5114527;28;20055;-79
2022/05/29 00:38:28;;;;;;;5.03;2.17;;;;;;;24.98;51.01;100436.00;5114485;28;20059;-79
2022/05/29 00:41:10;;;;;;;5.45;2.15;;;;;;;24.98;51.06;100430.59;5114439;28;20046;-79
2022/05/29 00:43:38;;;;;;;;;;;;;;;24.99;51.03;100437.69;5113998;28;20051;-79
2022/05/29 00:46:06;;;;;;;3.85;1.90;;;;;;;24.98;51.06;100426.00;5115271;28;19919;-78
2022/05/29 00:48:33;;;;;;;4.82;2.28;;;;;;;25.00;51.03;100439.41;5115159;27;20044;-79
2022/05/29 00:51:05;;;;;;;5.60;2.40;;;;;;;24.99;50.87;100445.81;5114998;28;20051;-78
2022/05/29 00:53:33;;;;;;;7.22;2.15;;;;;;;25.00;50.92;100433.97;5115003;28;20391;-79
2022/05/29 00:56:05;;;;;;;3.72;1.55;;;;;;;25.01;50.60;100438.38;5114462;28;20047;-79
2022/05/29 00:58:33;;;;;;;4.47;2.15;;;;;;;24.98;50.90;100431.44;5096731;28;20483;-79
2022/05/29 01:01:03;;;;;;;5.05;2.05;;;;;;;24.98;50.42;100431.44;5094230;28;20401;-78
2022/05/29 01:03:31;;;;;;;6.35;2.08;;;;;;;24.98;50.44;100428.72;5094501;28;20480;-78
2022/05/29 01:05:58;;;;;;;3.83;2.13;;;;;;;24.97;50.53;100416.22;5093562;28;20048;-79
2022/05/29 01:08:33;;;;;;;3.38;1.95;;;;;;;24.96;50.56;100409.13;5092467;28;20043;-78
2022/05/29 01:11:13;;;;;;;3.45;2.40;;;;;;;24.96;50.65;100403.69;5094294;28;20551;-79
2022/05/29 01:14:07;;;;;;;2.47;1.52;;;;;;;24.95;50.56;100387.63;5094450;28;20059;-79
2022/05/29 01:16:46;;;;;;;;;;;;;;;24.94;50.61;100383.22;5094698;28;20052;-79
2022/05/29 01:19:37;;;;;;;3.92;1.58;;;;;;;24.95;50.69;100374.06;5093751;28;19920;-79
2022/05/29 01:22:08;;;;;;;2.85;1.70;;;;;;;24.93;50.59;100374.25;5075856;28;20048;-79
2022/05/29 01:24:35;;;;;;;2.70;1.73;;;;;;;24.93;50.57;100366.13;5094303;28;20055;-78
2022/05/29 01:27:39;;;;;;;4.28;1.70;;;;;;;24.95;50.86;100371.38;5101151;28;20101;-78
2022/05/29 01:30:17;;;;;;;3.15;1.75;;;;;;;24.95;50.92;100364.09;5114847;28;20043;-79
2022/05/29 01:32:51;;;;;;;2.83;1.45;;;;;;;24.96;50.85;100357.66;5114185;28;20048;-79
2022/05/29 01:35:47;;;;;;;4.10;1.88;;;;;;;24.96;50.87;100344.13;5114481;28;20044;-79
2022/05/29 01:38:24;;;;;;;3.00;2.13;;;;;;;24.97;50.68;100342.25;5112582;28;20388;-79
2022/05/29 01:41:06;;;;;;;4.75;1.70;;;;;;;24.96;50.79;100327.88;5114373;28;20471;-79
2022/05/29 01:43:57;;;;;;;3.63;1.85;;;;;;;24.97;50.87;100326.00;5114393;28;20483;-78
2022/05/29 01:46:31;;;;;;;4.40;2.17;;;;;;;24.95;50.79;100323.47;5113949;28;20040;-79
2022/05/29 01:49:18;;;;;;;3.03;1.95;;;;;;;24.95;51.04;100328.88;5112805;28;20047;-79
2022/05/29 01:51:58;;;;;;;4.57;2.22;;;;;;;24.96;51.07;100325.16;5113574;28;20059;-79
2022/05/29 01:54:34;;;;;;;3.80;1.55;;;;;;;24.96;50.69;100338.72;5114319;28;20047;-78
2022/05/29 01:57:08;;;;;;;3.75;1.98;;;;;;;24.96;51.02;100337.88;5113798;28;20055;-78
2022/05/29 01:59:42;;;;;;;3.00;1.88;;;;;;;24.96;51.00;100332.44;5114666;28;20051;-79
2022/05/29 02:02:13;;;;;;;6.25;2.03;;;;;;;24.95;50.80;100331.59;5118050;28;20494;-78
2022/05/29 02:04:46;;;;;;;6.43;1.65;;;;;;;24.95;50.74;100326.16;5115709;28;20501;-79
2022/05/29 02:10:12;;;;;;;4.70;1.80;;;;;;;24.96;51.05;100308.09;5114476;28;20070;-78
2022/05/29 02:13:05;;;;;;;7.53;2.33;;;;;;;24.95;50.93;100309.91;5114199;28;20438;-79
2022/05/29 02:15:40;;;;;;;4.03;1.80;;;;;;;24.96;50.88;100305.38;5114270;28;20047;-78
2022/05/29 02:18:17;;;;;;;3.78;1.60;;;;;;;24.97;50.94;100304.34;5114013;28;20505;-79
2022/05/29 02:20:50;;;;;;;5.97;2.35;;;;;;;24.95;50.74;100301.78;5112345;28;20043;-78
2022/05/29 02:23:36;;;;;;;4.88;2.15;;;;;;;24.95;51.00;100304.50;5112816;28;20051;-78
2022/05/29 02:26:07;;;;;;;3.20;1.70;;;;;;;24.96;50.87;100292.66;5113457;28;20051;-79
2022/05/29 02:28:43;;;;;;;5.55;1.80;;;;;;;24.96;50.79;100292.66;5113165;28;20047;-79
2022/05/29 02:31:52;;;;;;;3.80;2.17;;;;;;;24.96;50.92;100287.25;5113504;28;20416;-78
2022/05/29 02:34:46;;;;;;;3.58;1.75;;;;;;;24.96;50.89;100284.56;5031184;28;20069;-79
2022/05/29 02:37:23;;;;;;;5.47;2.28;;;;;;;24.96;51.15;100291.84;5013091;28;20053;-79
2022/05/29 02:40:07;;;;;;;4.53;2.08;;;;;;;24.95;50.81;100285.56;5034018;28;20421;-78
2022/05/29 02:42:43;;;;;;;4.28;2.10;;;;;;;24.95;50.96;100280.13;5035198;28;20052;-78
2022/05/29 02:45:32;;;;;;;3.65;1.83;;;;;;;24.96;50.84;100276.44;5034685;28;20064;-79
2022/05/29 02:48:46;;;;;;;2.92;1.65;;;;;;;24.94;50.91;100266.78;5033776;28;20050;-79
2022/05/29 02:51:29;;;;;;;4.93;2.00;;;;;;;24.94;50.91;100264.09;4975362;28;20066;-78
2022/05/29 02:53:57;;;;;;;4.55;2.20;;;;;;;24.94;50.85;100255.97;4975869;28;20562;-78
2022/05/29 02:56:24;;;;;;;2.83;1.52;;;;;;;24.93;50.61;100241.59;4976065;28;20059;-79
2022/05/29 02:58:55;;;;;;;6.45;2.10;;;;;;;24.95;50.96;100250.34;4976213;28;20062;-78
2022/05/29 03:01:31;;;;;;;6.57;2.15;;;;;;;24.93;50.91;100238.88;4976079;28;20069;-79
2022/05/29 03:04:29;;;;;;;3.40;1.65;;;;;;;24.92;50.95;100232.63;4975941;28;20063;-78
2022/05/29 03:07:03;;;;;;;3.85;1.90;;;;;;;24.93;50.70;100222.63;4975505;28;20463;-79
2022/05/29 03:09:51;;;;;;;3.38;1.85;;;;;;;24.94;50.90;100227.00;4975310;28;20066;-78
2022/05/29 03:12:36;;;;;;;4.20;2.15;;;;;;;24.92;50.69;100216.38;5050790;28;20056;-79
2022/05/29 03:15:25;;;;;;;3.92;2.00;;;;;;;24.92;50.58;100231.78;5054196;28;20056;-78
2022/05/29 03:18:02;;;;;;;3.45;1.83;;;;;;;24.92;50.72;100221.78;5054753;28;20504;-78
2022/05/29 03:20:41;;;;;;;8.10;1.75;;;;;;;24.92;50.59;100229.06;5054448;28;20480;-78
2022/05/29 03:23:17;;;;;;;3.22;1.65;;;;;;;24.91;50.64;100219.25;5054361;28;20056;-77
2022/05/29 03:25:50;;;;;;;2.80;1.88;;;;;;;24.90;50.50;100215.69;5055033;28;20453;-79
2022/05/29 03:28:27;;;;;;;5.80;2.17;;;;;;;24.90;50.44;100212.16;5084434;28;20435;-78
2022/05/29 03:30:59;;;;;;;3.80;1.90;;;;;;;24.90;50.32;100206.75;5113015;28;20059;-78
2022/05/29 03:33:27;;;;;;;5.93;2.10;;;;;;;24.87;50.53;100197.13;5116557;28;20051;-78
2022/05/29 03:35:54;;;;;;;4.10;1.63;;;;;;;24.88;50.13;100206.09;5116457;28;20391;-79
2022/05/29 03:38:22;;;;;;;4.18;2.05;;;;;;;24.86;49.93;100208.97;5116013;28;20055;-79
2022/05/29 03:40:51;;;;;;;3.58;1.70;;;;;;;24.85;49.81;100210.00;5116462;28;20055;-78
2022/05/29 03:43:18;;;;;;;4.30;1.63;;;;;;;24.85;49.91;100203.75;5114947;28;20059;-78
2022/05/29 03:45:46;;;;;;;3.85;2.13;;;;;;;24.83;50.26;100193.13;5116588;28;20036;-78
2022/05/29 03:48:13;;;;;;;3.22;1.60;;;;;;;24.81;50.07;100197.84;5099191;28;20051;-79
2022/05/29 03:50:40;;;;;;;3.67;1.60;;;;;;;24.81;49.93;100199.72;5115687;28;20052;-79
2022/05/29 03:53:08;;;;;;;5.03;2.03;;;;;;;24.81;50.23;100195.16;5116344;28;20047;-79
2022/05/29 03:55:35;;;;;;;4.13;1.67;;;;;;;24.79;50.30;100191.78;5115811;28;20036;-78
2022/05/29 03:58:02;;;;;;;4.07;2.10;;;;;;;24.79;50.16;100185.50;5115841;28;20406;-78
2022/05/29 04:00:30;;;;;;;5.28;1.80;;;;;;;24.80;50.34;100179.09;5115424;28;20047;-79
2022/05/29 04:02:57;;;;;;;4.22;1.67;;;;;;;24.79;50.51;100175.53;5115771;28;20399;-79
2022/05/29 04:05:25;;;;;;;4.18;1.80;;;;;;;24.79;50.07;100174.69;5116624;28;20036;-78
2022/05/29 04:13:32;;;;;;;4.05;1.70;;;;;;;24.78;50.35;100186.53;5115152;28;20043;-79
2022/05/29 04:15:59;;;;;;;4.03;1.85;;;;;;;24.78;50.43;100198.22;5115102;28;20043;-79
2022/05/29 04:18:26;;;;;;;5.22;1.67;;;;;;;24.78;50.42;100194.66;5114072;28;20387;-78
2022/05/29 04:20:54;;;;;;;2.90;1.63;;;;;;;24.79;50.41;100199.88;5115349;28;20043;-79
2022/05/29 04:23:21;;;;;;;2.20;1.40;;;;;;;24.78;50.37;100197.38;5114817;28;20047;-78
2022/05/29 04:25:49;;;;;;;3.45;1.50;;;;;;;24.78;50.45;100194.66;5115224;28;20036;-79
2022/05/29 04:28:17;;;;;;;4.40;1.45;;;;;;;24.78;50.44;100187.38;5115402;28;20048;-78
2022/05/29 04:30:45;;;;;;;3.47;1.52;;;;;;;24.78;50.35;100192.81;5114064;28;20043;-78
2022/05/29 04:33:12;;;;;;;2.22;1.50;;;;;;;24.78;50.26;100192.81;5114572;28;20047;-78
2022/05/29 04:35:49;;;;;;;4.55;1.45;;;;;;;24.77;50.21;100199.25;5114452;28;20399;-78
2022/05/29 04:38:17;;;;;;;2.65;1.63;;;;;;;24.77;50.00;100203.81;5114635;28;20051;-78
2022/05/29 04:40:45;;;;;;;2.17;1.30;;;;;;;24.76;50.20;100204.84;5114512;28;20054;-78
2022/05/29 04:43:14;;;;;;;2.83;1.60;;;;;;;24.76;50.22;100207.56;5114727;28;20048;-78
2022/05/29 04:45:44;;;;;;;3.47;1.50;;;;;;;24.77;50.53;100209.25;5114875;28;20131;-79
2022/05/29 04:48:13;;;;;;;2.58;1.33;;;;;;;24.76;50.14;100204.84;5114049;28;20043;-79
2022/05/29 04:50:47;;;;;;;3.15;1.65;;;;;;;24.76;50.36;100211.09;5115683;28;20044;-79
2022/05/29 04:53:15;;;;;;;2.30;1.42;;;;;;;24.76;50.35;100199.44;5114794;28;20051;-79
2022/05/29 04:55:42;;;;;;;3.42;1.55;;;;;;;24.76;50.45;100202.97;5114228;28;20047;-79
2022/05/29 04:58:10;;;;;;;3.75;1.90;;;;;;;24.76;50.48;100200.28;5102266;28;20059;-79
2022/05/29 05:00:40;;;;;;;2.30;1.38;;;;;;;24.77;50.30;100201.94;5093470;28;20044;-79
2022/05/29 05:03:07;;;;;;;4.10;1.70;;;;;;;24.76;50.40;100202.16;5093521;28;20492;-78
2022/05/29 05:05:34;;;;;;;6.82;1.90;;;;;;;24.75;50.13;100208.56;5093972;28;20051;-78
2022/05/29 05:08:02;;;;;;;5.10;1.95;;;;;;;24.76;50.36;100210.28;5093862;28;20051;-78
2022/05/29 05:10:30;;;;;;;3.47;1.60;;;;;;;24.75;50.13;100195.03;5093717;28;20047;-78
2022/05/29 05:12:57;;;;;;;2.90;1.58;;;;;;;24.75;50.51;100208.56;5093078;28;20488;-79
2022/05/29 05:15:24;;;;;;;2.88;1.85;;;;;;;24.75;50.21;100205.84;5093746;28;20049;-78
2022/05/29 05:17:52;;;;;;;6.43;1.77;;;;;;;24.74;50.25;100210.44;5093882;28;20373;-78
2022/05/29 05:20:19;;;;;;;3.83;1.90;;;;;;;24.73;50.12;100206.03;5094645;28;20055;-78
2022/05/29 05:22:47;;;;;;;4.00;2.00;;;;;;;24.73;50.21;100216.03;5093911;28;20491;-78
2022/05/29 05:25:14;;;;;;;6.30;1.67;;;;;;;24.74;50.46;100213.13;5093324;28;20395;-78
2022/05/29 05:27:41;;;;;;;4.43;2.33;;;;;;;24.73;50.29;100214.16;5093530;28;20511;-78
2022/05/29 05:30:10;;;;;;;3.08;1.42;;;;;;;24.72;50.25;100207.09;5093585;28;20120;-78
2022/05/29 05:32:37;;;;;;;3.38;1.80;;;;;;;24.74;50.35;100209.59;5110689;28;20050;-78
2022/05/29 05:35:07;;;;;;;5.20;1.73;;;;;;;24.73;50.22;100210.63;5113804;28;20501;-78
2022/05/29 05:37:36;;;;;;;4.78;2.00;;;;;;;24.73;50.44;100205.22;5113569;28;20135;-78
2022/05/29 05:40:07;;;;;;;4.38;1.63;;;;;;;24.73;50.34;100214.16;5110097;28;20063;-79
2022/05/29 05:42:35;;;;;;;4.40;2.10;;;;;;;24.72;50.16;100208.94;5092270;28;20048;-78
2022/05/29 05:45:07;;;;;;;5.82;1.85;;;;;;;24.72;50.34;100204.38;5093430;28;20070;-79
2022/05/29 05:47:34;;;;;;;3.85;1.52;;;;;;;24.73;50.37;100211.47;5093506;28;20051;-78
2022/05/29 05:50:04;;;;;;;3.97;2.00;;;;;;;24.73;50.33;100213.34;5094358;28;20514;-79
2022/05/29 05:52:31;;;;;;;6.18;1.98;;;;;;;24.73;50.50;100208.75;5093400;28;20052;-79
2022/05/29 05:54:59;;;;;;;5.20;1.70;;;;;;;24.74;50.56;100207.72;5076252;28;20048;-79
2022/05/29 05:57:26;;;;;;;3.28;1.80;;;;;;;24.75;50.61;100203.16;5093266;28;20135;-77
2022/05/29 05:59:54;;;;;;;4.72;1.70;;;;;;;24.74;50.60;100207.72;5092972;28;20407;-78
2022/05/29 06:02:23;;;;;;;3.97;1.55;;;;;;;24.75;50.72;100203.97;5092852;28;20399;-79
2022/05/29 06:04:51;;;;;;;4.30;1.65;;;;;;;24.75;50.69;100203.97;5093024;28;20506;-79
2022/05/29 06:07:18;;;;;;;2.92;1.70;;;;;;;24.77;50.82;100206.53;5092781;28;20044;-78
2022/05/29 06:09:49;;;;;;;4.72;1.60;;;;;;;24.76;50.69;100205.69;5092995;28;20043;-80
2022/05/29 06:12:19;;;;;;;2.88;1.60;;;;;;;24.76;50.64;100199.44;5093414;28;20048;-79
2022/05/29 06:14:48;;;;;;;5.25;2.10;;;;;;;24.76;50.42;100200.28;5097177;28;20052;-79
2022/05/29 06:17:16;;;;;;;5.53;1.42;;;;;;;24.76;50.66;100197.56;5097464;28;20047;-78
2022/05/29 06:19:43;;;;;;;4.50;2.22;;;;;;;24.77;50.46;100201.13;5096481;28;20044;-79
2022/05/29 06:22:11;;;;;;;5.03;1.67;;;;;;;24.76;50.27;100200.28;5096463;28;20048;-79
2022/05/29 06:24:38;;;;;;;4.70;2.10;;;;;;;24.76;50.31;100199.44;5095480;28;20519;-78
2022/05/29 06:27:05;;;;;;;4.18;1.65;;;;;;;24.76;50.32;100194.88;5098394;28;20047;-78
2022/05/29 06:29:33;;;;;;;4.47;1.85;;;;;;;24.75;50.51;100193.16;5096593;28;20040;-79
2022/05/29 06:32:03;;;;;;;3.00;1.50;;;;;;;24.75;50.18;100193.16;5103398;28;20050;-79
2022/05/29 06:34:33;;;;;;;2.78;1.60;;;;;;;24.74;50.09;100186.06;5116920;28;20055;-79
2022/05/29 06:37:05;;;;;;;3.55;2.15;;;;;;;24.73;50.12;100189.81;5117289;28;20039;-78
2022/05/29 06:39:38;;;;;;;4.38;2.03;;;;;;;24.73;50.28;100178.97;5117936;28;20372;-78
2022/05/29 06:42:05;;;;;;;;;;;;;;;24.73;50.44;100176.28;5118318;28;20047;-79
2022/05/29 06:44:40;;;;;;;4.15;2.50;;;;;;;24.75;50.13;100181.50;5098644;28;19919;-79
2022/05/29 06:47:09;;;;;;;3.90;1.85;;;;;;;24.74;50.34;100188.78;5117176;28;20040;-80
2022/05/29 06:49:37;;;;;;;4.38;1.70;;;;;;;24.74;50.46;100188.78;5117541;28;20479;-79
2022/05/29 06:52:08;;;;;;;3.30;1.88;;;;;;;24.74;50.62;100190.66;5116644;28;20417;-79
2022/05/29 06:54:37;;;;;;;3.42;1.77;;;;;;;24.74;50.40;100185.22;5118169;28;20483;-78
2022/05/29 06:57:06;;;;;;;6.63;1.90;;;;;;;24.75;50.33;100184.19;5115766;28;20059;-76
2022/05/29 07:08:05;;;;;;;10.45;1.95;;;;;;;24.75;50.79;100181.50;5099164;28;20048;-78
2022/05/29 07:10:34;;;;;;;5.68;1.80;;;;;;;24.75;50.66;100187.75;5097104;28;20048;-78
2022/05/29 07:13:02;;;;;;;5.82;2.08;;;;;;;24.76;50.60;100183.19;5096591;28;20048;-79
2022/05/29 07:15:30;;;;;;;3.75;1.83;;;;;;;24.75;50.65;100176.91;5098831;28;20051;-78
2022/05/29 07:18:03;;;;;;;4.38;1.75;;;;;;;24.75;50.69;100179.63;5097872;28;20404;-79
2022/05/29 07:20:33;;;;;;;5.15;1.98;;;;;;;24.75;50.72;100179.63;5080048;28;20074;-79
2022/05/29 07:23:00;;;;;;;4.03;1.88;;;;;;;24.76;50.51;100175.06;5098246;28;20047;-78
2022/05/29 07:25:28;;;;;;;3.83;1.77;;;;;;;24.75;50.75;100178.78;5077375;28;20047;-79
2022/05/29 07:27:56;;;;;;;4.45;1.85;;;;;;;24.77;50.75;100179.47;5079212;28;20044;-78
2022/05/29 07:30:23;;;;;;;3.13;1.60;;;;;;;24.76;50.67;100181.34;5096107;28;20043;-78
2022/05/29 07:32:51;;;;;;;4.80;1.75;;;;;;;24.77;50.40;100184.88;5104833;28;20047;-79
2022/05/29 07:35:18;;;;;;;4.78;1.65;;;;;;;24.76;50.44;100175.91;5118299;28;20487;-78
2022/05/29 07:37:46;;;;;;;2.95;1.50;;;;;;;24.76;50.42;100184.03;5118964;28;20044;-78
2022/05/29 07:40:13;;;;;;;4.32;1.77;;;;;;;24.74;50.30;100177.09;5115342;28;20048;-79
2022/05/29 07:45:27;;;;;;;4.25;2.13;;;;;;;24.54;48.45;100172.19;5095420;28;20051;-79
2022/05/29 07:47:55;;;;;;;5.75;3.28;;;;;;;24.33;48.31;100177.41;5095093;28;20040;-80
2022/05/29 07:50:23;;;;;;;6.22;2.00;;;;;;;24.09;48.35;100176.56;5095116;28;20391;-78
2022/05/29 07:52:52;;;;;;;4.25;2.00;;;;;;;23.98;48.75;100173.41;5095149;28;20048;-79
2022/05/29 07:55:20;;;;;;;7.25;2.25;;;;;;;23.85;48.65;100172.13;5095417;28;20047;-78
2022/05/29 07:57:48;;;;;;;4.28;1.90;;;;;;;23.71;48.95;100166.66;5094969;28;20040;-78
2022/05/29 08:00:18;;;;;;;4.35;2.03;;;;;;;23.58;49.40;100170.75;5095197;28;20048;-78
2022/05/29 08:02:46;;;;;;;5.03;2.67;;;;;;;23.59;49.88;100169.72;5095345;28;20048;-78
2022/05/29 08:05:16;;;;;;;5.20;2.05;;;;;;;23.59;50.23;100153.50;5095229;28;20068;-78
2022/05/29 08:07:45;;;;;;;4.60;2.33;;;;;;;23.57;50.15;100160.94;5096662;28;20044;-79
2022/05/29 08:10:14;;;;;;;9.25;2.50;;;;;;;23.56;50.07;100156.56;5096116;28;20388;-80
2022/05/29 08:12:42;;;;;;;3.40;1.80;;;;;;;23.58;49.92;100153.69;5095680;28;20044;-79
2022/05/29 08:15:10;;;;;;;4.68;2.10;;;;;;;23.58;50.18;100148.28;5094784;28;20055;-78
2022/05/29 08:17:39;;;;;;;7.32;2.17;;;;;;;23.55;50.24;100152.19;5094231;28;20048;-84
2022/05/29 08:20:08;;;;;;;6.35;2.30;;;;;;;23.54;50.29;100155.06;5094592;28;20044;-76
2022/05/29 08:22:36;;;;;;;4.45;2.63;;;;;;;23.50;49.50;100156.41;5094350;28;20044;-76
2022/05/29 08:30:51;;;;;;;6.03;2.33;;;;;;;23.24;49.44;100151.28;5093391;28;20055;-77
2022/05/29 08:33:23;;;;;;;5.53;2.08;;;;;;;23.18;49.48;100142.88;5095862;28;20055;-76
2022/05/29 08:36:13;;;;;;;5.28;2.83;;;;;;;23.16;50.11;100146.75;5110660;28;20042;-74
2022/05/29 08:38:44;;;;;;;8.35;2.47;;;;;;;23.16;50.58;100149.44;5115294;28;20062;-73
2022/05/29 08:41:16;;;;;;;7.22;2.15;;;;;;;23.15;50.97;100145.91;5113846;28;20046;-74
2022/05/29 08:44:05;;;;;;;;;;;;;;;23.12;50.00;100140.00;5115341;28;20052;-74
2022/05/29 08:46:37;;;;;;;5.28;1.83;;;;;;;23.08;49.91;100139.50;5114479;28;20397;-73
2022/05/29 08:49:05;;;;;;;6.43;1.80;;;;;;;23.11;50.58;100146.44;5113668;28;20040;-74
2022/05/29 08:52:04;;;;;;;4.90;2.10;;;;;;;23.15;50.62;100145.06;5114426;28;20039;-74
2022/05/29 08:54:46;;;;;;;7.25;1.95;;;;;;;23.12;49.65;100143.53;5113971;28;20063;-74
2022/05/29 08:57:38;;;;;;;5.55;2.08;;;;;;;23.08;50.22;100138.66;5113086;28;20505;-74
2022/05/29 09:00:24;;;;;;;6.25;2.33;;;;;;;23.09;50.66;100148.44;5103540;28;20468;-73
2022/05/29 09:03:16;;;;;;;8.35;2.20;;;;;;;23.08;50.14;100141.38;5094640;28;20048;-74
2022/05/29 09:05:48;;;;;;;6.15;2.13;;;;;;;23.10;50.71;100144.75;5093567;28;20411;-74
2022/05/29 09:08:23;;;;;;;5.63;2.63;;;;;;;23.08;50.76;100142.22;5093724;28;20110;-74
2022/05/29 09:10:55;;;;;;;5.35;2.00;;;;;;;23.06;50.93;100144.25;5094224;28;20048;-75
2022/05/29 09:13:28;;;;;;;7.95;2.47;;;;;;;23.07;50.98;100145.09;5093841;28;20051;-74
2022/05/29 09:16:06;;;;;;;10.23;3.08;;;;;;;23.06;51.00;100143.41;5094080;28;20063;-73
2022/05/29 09:18:40;;;;;;;8.65;2.20;;;;;;;23.10;51.04;100134.78;5093424;28;20043;-77
2022/05/29 09:21:45;;;;;;;5.63;2.35;;;;;;;23.11;50.78;100135.63;5092796;28;20395;-75
2022/05/29 09:24:39;;;;;;;5.53;2.03;;;;;;;23.14;51.63;100133.44;5092105;28;20519;-74
2022/05/29 09:27:10;;;;;;;3.30;1.73;;;;;;;23.16;51.39;100141.34;5093620;28;20403;-74
2022/05/29 09:29:38;;;;;;;4.05;1.90;;;;;;;23.16;51.57;100139.47;5093778;28;20039;-75
2022/05/29 09:32:14;;;;;;;5.45;2.17;;;;;;;23.09;52.00;100133.13;5093472;28;20040;-75
2022/05/29 09:34:49;;;;;;;5.53;2.63;;;;;;;23.15;51.83;100143.22;5097834;28;20046;-75
2022/05/29 09:37:34;;;;;;;8.07;2.30;;;;;;;23.14;51.23;100133.44;5113096;28;20048;-76
2022/05/29 09:40:03;;;;;;;4.38;2.13;;;;;;;23.11;50.81;100133.78;5113897;28;20406;-75
2022/05/29 09:42:38;;;;;;;6.32;2.00;;;;;;;23.08;50.40;100134.09;5095825;28;20055;-75
2022/05/29 09:45:25;;;;;;;5.45;2.13;;;;;;;23.03;50.26;100135.66;5093137;28;20055;-75
2022/05/29 09:50:47;;;;;;;6.47;2.15;;;;;;;23.01;50.42;100135.84;5113204;28;20471;-75
2022/05/29 09:53:30;;;;;;;4.38;2.28;;;;;;;22.92;51.50;100132.28;5112906;28;20052;-75
2022/05/29 09:56:00;;;;;;;5.03;2.30;;;;;;;23.01;51.01;100129.56;5112985;28;20052;-76
2022/05/29 09:58:47;;;;;;;3.30;1.75;;;;;;;23.08;51.44;100138.66;5113214;28;20044;-75
2022/05/29 10:01:42;;;;;;;4.93;2.13;;;;;;;23.14;51.37;100133.44;5113067;28;20044;-75
2022/05/29 10:04:20;;;;;;;6.78;2.28;;;;;;;23.22;51.14;100137.13;5112909;28;20052;-75
2022/05/29 10:06:54;;;;;;;4.85;2.00;;;;;;;23.26;51.18;100138.47;5113123;28;20039;-75
2022/05/29 10:09:45;;;;;;;6.28;1.98;;;;;;;23.28;50.80;100134.56;5112462;28;20439;-77
2022/05/29 10:12:18;;;;;;;4.25;2.03;;;;;;;23.31;51.18;100134.22;5110416;28;20047;-75
2022/05/29 10:14:45;;;;;;;5.00;2.38;;;;;;;23.27;50.77;100126.63;5113283;28;20047;-75
2022/05/29 10:17:37;;;;;;;4.70;2.15;;;;;;;23.28;50.54;100122.91;5113100;28;20039;-75
2022/05/29 10:20:35;;;;;;;6.60;2.75;;;;;;;23.32;51.00;100133.19;5088089;28;20052;-77
2022/05/29 10:23:09;;;;;;;6.22;2.55;;;;;;;23.33;50.95;100134.84;5111534;28;20066;-75
2022/05/29 10:25:55;;;;;;;3.42;1.92;;;;;;;23.36;51.22;100125.56;5112027;28;20054;-76
2022/05/29 10:28:29;;;;;;;3.92;2.00;;;;;;;23.32;51.01;100132.34;5112732;28;20046;-78
2022/05/29 10:31:36;;;;;;;5.75;2.38;;;;;;;23.28;50.96;100131.00;5112837;28;20522;-78
2022/05/29 10:34:09;;;;;;;5.45;3.28;;;;;;;23.14;51.32;100125.34;5050978;28;20534;-78
2022/05/29 10:36:39;;;;;;;4.70;2.97;;;;;;;22.27;54.12;100124.25;5049529;28;20057;-78
2022/05/29 10:39:21;;;;;;;8.48;3.50;;;;;;;21.68;55.87;100135.09;5050252;28;20041;-77
2022/05/29 10:41:58;;;;;;;8.30;3.03;;;;;;;21.88;55.86;100135.63;5050919;28;20541;-78
2022/05/29 10:44:41;;;;;;;7.13;3.30;;;;;;;21.53;56.47;100136.72;5050294;28;20053;-78
2022/05/29 10:47:23;;;;;;;;;;;;;;;21.24;57.34;100140.59;5034118;28;20060;-77
2022/05/29 10:50:08;;;;;;;6.38;3.08;;;;;;;21.31;57.77;100146.19;5050706;28;19927;-78
2022/05/29 10:53:11;;;;;;;4.75;2.78;;;;;;;21.36;57.81;100148.44;5051369;28;20417;-77
2022/05/29 10:55:50;;;;;;;5.40;2.50;;;;;;;21.60;56.89;100134.22;5033321;28;20053;-77
2022/05/29 10:58:44;;;;;;;5.30;2.30;;;;;;;21.84;56.35;100141.53;5050639;28;20068;-77
2022/05/29 11:04:45;;;;;;;6.03;2.50;;;;;;;22.23;55.36;100138.22;5054234;28;20064;-78
2022/05/29 11:07:30;;;;;;;4.05;2.72;;;;;;;22.18;54.98;100131.47;5044771;28;20542;-78
2022/05/29 11:10:30;;;;;;;4.93;2.72;;;;;;;22.21;55.07;100136.56;5116181;28;20048;-78
2022/05/29 11:13:37;;;;;;;4.90;2.45;;;;;;;22.31;55.11;100141.75;5117396;28;20067;-79
2022/05/29 11:16:20;;;;;;;7.28;2.67;;;;;;;22.44;55.01;100138.56;5116595;28;20047;-76
2022/05/29 11:18:55;;;;;;;7.07;3.00;;;;;;;22.31;55.61;100143.63;5118377;28;20036;-78
2022/05/29 11:21:43;;;;;;;8.02;2.95;;;;;;;21.95;56.86;100135.78;5117803;28;20048;-78
2022/05/29 11:24:43;;;;;;;5.05;2.38;;;;;;;22.18;56.30;100139.56;5117460;28;20398;-79
2022/05/29 11:28:14;;;;;;;3.45;2.10;;;;;;;22.36;55.60;100147.53;5105171;28;20059;-77
2022/05/29 11:30:41;;;;;;;5.03;3.13;;;;;;;22.49;56.90;100147.00;5116741;28;20039;-77
2022/05/29 11:33:24;;;;;;;5.28;3.15;;;;;;;22.57;57.40;100141.63;5115849;28;20402;-78
2022/05/29 11:36:14;;;;;;;9.60;3.50;;;;;;;22.64;56.96;100145.28;5117102;28;20062;-78
2022/05/29 11:39:06;;;;;;;4.13;2.92;;;;;;;22.72;57.24;100149.84;5089994;28;20114;-78
2022/05/29 11:42:05;;;;;;;5.47;2.78;;;;;;;22.78;58.38;100142.94;5113355;28;20055;-79
2022/05/29 11:44:45;;;;;;;6.03;3.35;;;;;;;22.79;56.85;100147.31;5079760;28;20056;-79
2022/05/29 11:53:32;;;;;;;5.75;3.15;;;;;;;22.85;56.64;100141.22;5116734;28;20054;-78
2022/05/29 11:56:05;;;;;;;5.75;3.13;;;;;;;22.84;57.19;100143.06;5115675;28;20056;-78
2022/05/29 11:58:46;;;;;;;7.57;3.70;;;;;;;22.86;56.62;100138.38;5115217;28;20051;-78
2022/05/29 12:01:39;;;;;;;7.38;3.50;;;;;;;22.87;57.30;100139.19;5116637;28;20048;-78
2022/05/29 12:04:23;;;;;;;6.70;3.35;;;;;;;22.88;56.65;100132.78;5114682;28;20051;-78
2022/05/29 12:06:58;;;;;;;8.23;3.88;;;;;;;22.89;56.73;100137.19;5115287;28;20048;-78
2022/05/29 12:09:38;;;;;;;9.00;2.70;;;;;;;22.91;59.30;100137.88;5114663;28;20035;-78
2022/05/29 12:12:13;;;;;;;3.80;2.58;;;;;;;22.94;57.77;100137.53;5113078;28;20370;-78
2022/05/29 12:14:47;;;;;;;4.25;2.85;;;;;;;22.94;56.64;100132.97;5115542;28;20371;-79
2022/05/29 12:17:29;;;;;;;6.60;3.28;;;;;;;22.95;56.50;100129.25;5116172;28;20051;-77
2022/05/29 12:20:06;;;;;;;4.38;2.83;;;;;;;22.96;55.72;100132.78;5115105;28;20032;-78
2022/05/29 12:22:55;;;;;;;4.90;2.35;;;;;;;22.98;56.28;100121.84;5098267;28;20399;-78
2022/05/29 12:25:51;;;;;;;6.25;2.70;;;;;;;22.98;55.65;100135.34;5115282;28;20077;-79
2022/05/29 12:28:53;;;;;;;5.13;2.75;;;;;;;22.91;54.91;100136.00;5114040;28;20056;-78
2022/05/29 12:31:26;;;;;;;5.00;2.55;;;;;;;22.87;54.77;100145.44;5115338;28;20055;-80
2022/05/29 12:34:00;;;;;;;4.80;2.55;;;;;;;22.83;54.99;100140.56;5114735;28;20058;-79
2022/05/29 12:36:47;;;;;;;4.65;2.00;;;;;;;22.74;55.28;100134.34;5113441;28;20047;-79
2022/05/29 12:39:30;;;;;;;3.47;2.22;;;;;;;22.70;55.68;100135.69;5114632;28;20048;-78
2022/05/29 12:42:21;;;;;;;;;;;;;;;22.63;56.06;100140.06;5116485;28;20052;-80